sensor_id;sensor_type;location;lat;lon;timestamp;P1;durP1;ratioP1;P2;durP2;ratioP2
11000;SDS011;5553;48.506;8.870;2022-12-07T00:01:35;8.07;;;5.00;;
11000;SDS011;5553;48.506;8.870;2022-12-07T00:04:06;6.53;;;4.50;;
11000;SDS011;5553;48.506;8.870;2022-12-07T00:06:37;8.43;;;4.60;;
11000;SDS011;5553;48.506;8.870;2022-12-07T00:09:07;8.47;;;5.50;;
11000;SDS011;5553;48.506;8.870;2022-12-07T00:11:42;10.97;;;6.33;;
11000;SDS011;5553;48.506;8.870;2022-12-07T00:14:11;8.67;;;5.10;;
11000;SDS011;5553;48.506;8.870;2022-12-07T00:16:41;8.43;;;5.30;;
11000;SDS011;5553;48.506;8.870;2022-12-07T00:19:11;8.70;;;5.37;;
11000;SDS011;5553;48.506;8.870;2022-12-07T00:21:40;10.23;;;6.20;;
11000;SDS011;5553;48.506;8.870;2022-12-07T00:24:10;9.77;;;5.37;;
11000;SDS011;5553;48.506;8.870;2022-12-07T00:26:41;7.50;;;4.50;;
11000;SDS011;5553;48.506;8.870;2022-12-07T00:29:12;10.23;;;6.33;;
11000;SDS011;5553;48.506;8.870;2022-12-07T00:31:43;9.57;;;6.20;;
11000;SDS011;5553;48.506;8.870;2022-12-07T00:34:12;8.70;;;5.57;;
11000;SDS011;5553;48.506;8.870;2022-12-07T00:36:42;11.60;;;5.60;;
11000;SDS011;5553;48.506;8.870;2022-12-07T00:39:10;10.27;;;4.93;;
11000;SDS011;5553;48.506;8.870;2022-12-07T00:41:42;8.60;;;5.33;;
11000;SDS011;5553;48.506;8.870;2022-12-07T00:44:10;6.90;;;5.07;;
11000;SDS011;5553;48.506;8.870;2022-12-07T00:46:39;7.67;;;5.10;;
11000;SDS011;5553;48.506;8.870;2022-12-07T00:49:07;8.93;;;5.07;;
11000;SDS011;5553;48.506;8.870;2022-12-07T00:51:35;7.90;;;4.50;;
11000;SDS011;5553;48.506;8.870;2022-12-07T00:54:04;8.97;;;5.70;;
11000;SDS011;5553;48.506;8.870;2022-12-07T00:56:32;7.83;;;5.27;;
11000;SDS011;5553;48.506;8.870;2022-12-07T00:59:04;8.53;;;5.80;;
11000;SDS011;5553;48.506;8.870;2022-12-07T01:01:34;7.43;;;5.10;;
11000;SDS011;5553;48.506;8.870;2022-12-07T01:04:04;10.13;;;4.87;;
11000;SDS011;5553;48.506;8.870;2022-12-07T01:06:33;8.40;;;5.50;;
11000;SDS011;5553;48.506;8.870;2022-12-07T01:09:02;8.73;;;5.67;;
11000;SDS011;5553;48.506;8.870;2022-12-07T01:11:31;8.67;;;5.80;;
11000;SDS011;5553;48.506;8.870;2022-12-07T01:14:00;8.63;;;5.83;;
11000;SDS011;5553;48.506;8.870;2022-12-07T01:16:31;8.43;;;4.70;;
11000;SDS011;5553;48.506;8.870;2022-12-07T01:19:00;9.70;;;5.70;;
11000;SDS011;5553;48.506;8.870;2022-12-07T01:21:30;10.60;;;6.23;;
11000;SDS011;5553;48.506;8.870;2022-12-07T01:24:02;10.27;;;5.20;;
11000;SDS011;5553;48.506;8.870;2022-12-07T01:26:32;6.77;;;5.07;;
11000;SDS011;5553;48.506;8.870;2022-12-07T01:29:00;6.97;;;5.10;;
11000;SDS011;5553;48.506;8.870;2022-12-07T01:31:31;8.83;;;5.60;;
11000;SDS011;5553;48.506;8.870;2022-12-07T01:34:00;9.87;;;5.57;;
11000;SDS011;5553;48.506;8.870;2022-12-07T01:36:29;8.33;;;5.33;;
11000;SDS011;5553;48.506;8.870;2022-12-07T01:39:00;10.60;;;5.63;;
11000;SDS011;5553;48.506;8.870;2022-12-07T01:41:32;9.27;;;5.30;;
11000;SDS011;5553;48.506;8.870;2022-12-07T01:44:08;7.10;;;4.90;;
11000;SDS011;5553;48.506;8.870;2022-12-07T01:46:47;10.23;;;5.23;;
11000;SDS011;5553;48.506;8.870;2022-12-07T01:49:22;10.90;;;5.97;;
11000;SDS011;5553;48.506;8.870;2022-12-07T01:51:55;7.87;;;5.27;;
11000;SDS011;5553;48.506;8.870;2022-12-07T01:54:28;7.97;;;4.43;;
11000;SDS011;5553;48.506;8.870;2022-12-07T01:56:56;7.60;;;5.03;;
11000;SDS011;5553;48.506;8.870;2022-12-07T01:59:26;10.20;;;5.10;;
11000;SDS011;5553;48.506;8.870;2022-12-07T02:01:57;9.17;;;5.67;;
11000;SDS011;5553;48.506;8.870;2022-12-07T02:04:26;7.60;;;5.00;;
11000;SDS011;5553;48.506;8.870;2022-12-07T02:06:55;10.33;;;5.10;;
11000;SDS011;5553;48.506;8.870;2022-12-07T02:09:25;10.43;;;5.93;;
11000;SDS011;5553;48.506;8.870;2022-12-07T02:11:53;8.30;;;5.60;;
11000;SDS011;5553;48.506;8.870;2022-12-07T02:14:23;10.23;;;5.47;;
11000;SDS011;5553;48.506;8.870;2022-12-07T02:16:54;6.40;;;4.70;;
11000;SDS011;5553;48.506;8.870;2022-12-07T02:22:33;7.27;;;5.33;;
11000;SDS011;5553;48.506;8.870;2022-12-07T02:25:22;10.40;;;5.50;;
11000;SDS011;5553;48.506;8.870;2022-12-07T02:28:01;9.77;;;5.80;;
11000;SDS011;5553;48.506;8.870;2022-12-07T02:30:38;9.10;;;5.03;;
11000;SDS011;5553;48.506;8.870;2022-12-07T02:33:13;7.63;;;4.53;;
11000;SDS011;5553;48.506;8.870;2022-12-07T02:35:46;8.43;;;4.63;;
11000;SDS011;5553;48.506;8.870;2022-12-07T02:38:21;10.80;;;6.53;;
11000;SDS011;5553;48.506;8.870;2022-12-07T02:40:57;8.73;;;5.10;;
11000;SDS011;5553;48.506;8.870;2022-12-07T02:43:33;8.47;;;5.00;;
11000;SDS011;5553;48.506;8.870;2022-12-07T02:46:09;10.57;;;5.90;;
11000;SDS011;5553;48.506;8.870;2022-12-07T02:48:42;9.00;;;6.13;;
11000;SDS011;5553;48.506;8.870;2022-12-07T02:51:11;9.20;;;6.20;;
11000;SDS011;5553;48.506;8.870;2022-12-07T02:53:41;9.27;;;5.73;;
11000;SDS011;5553;48.506;8.870;2022-12-07T02:56:13;8.30;;;4.70;;
11000;SDS011;5553;48.506;8.870;2022-12-07T02:58:50;5.40;;;3.37;;
11000;SDS011;5553;48.506;8.870;2022-12-07T03:01:34;6.80;;;4.30;;
11000;SDS011;5553;48.506;8.870;2022-12-07T03:04:13;6.77;;;4.70;;
11000;SDS011;5553;48.506;8.870;2022-12-07T03:06:56;7.67;;;4.67;;
11000;SDS011;5553;48.506;8.870;2022-12-07T03:09:33;7.43;;;4.47;;
11000;SDS011;5553;48.506;8.870;2022-12-07T03:12:12;7.20;;;4.47;;
11000;SDS011;5553;48.506;8.870;2022-12-07T03:14:46;7.80;;;3.60;;
11000;SDS011;5553;48.506;8.870;2022-12-07T03:17:22;7.43;;;4.20;;
11000;SDS011;5553;48.506;8.870;2022-12-07T03:19:56;9.40;;;4.23;;
11000;SDS011;5553;48.506;8.870;2022-12-07T03:22:27;9.43;;;3.90;;
11000;SDS011;5553;48.506;8.870;2022-12-07T03:25:00;9.27;;;5.20;;
11000;SDS011;5553;48.506;8.870;2022-12-07T03:27:32;7.60;;;4.20;;
11000;SDS011;5553;48.506;8.870;2022-12-07T03:30:05;8.53;;;4.67;;
11000;SDS011;5553;48.506;8.870;2022-12-07T03:32:41;8.83;;;5.03;;
11000;SDS011;5553;48.506;8.870;2022-12-07T03:35:14;8.80;;;4.57;;
11000;SDS011;5553;48.506;8.870;2022-12-07T03:37:48;9.03;;;4.93;;
11000;SDS011;5553;48.506;8.870;2022-12-07T03:40:22;9.47;;;4.90;;
11000;SDS011;5553;48.506;8.870;2022-12-07T03:42:53;10.43;;;5.03;;
11000;SDS011;5553;48.506;8.870;2022-12-07T03:45:25;11.27;;;5.83;;
11000;SDS011;5553;48.506;8.870;2022-12-07T03:48:03;9.70;;;5.20;;
11000;SDS011;5553;48.506;8.870;2022-12-07T03:50:38;9.40;;;5.43;;
11000;SDS011;5553;48.506;8.870;2022-12-07T03:53:12;10.57;;;6.17;;
11000;SDS011;5553;48.506;8.870;2022-12-07T03:55:46;9.27;;;5.53;;
11000;SDS011;5553;48.506;8.870;2022-12-07T03:58:17;9.13;;;5.53;;
11000;SDS011;5553;48.506;8.870;2022-12-07T04:00:49;10.07;;;5.60;;
11000;SDS011;5553;48.506;8.870;2022-12-07T04:03:21;8.77;;;5.70;;
11000;SDS011;5553;48.506;8.870;2022-12-07T04:05:49;9.53;;;5.50;;
11000;SDS011;5553;48.506;8.870;2022-12-07T04:08:18;11.97;;;6.37;;
11000;SDS011;5553;48.506;8.870;2022-12-07T04:10:46;11.83;;;6.17;;
11000;SDS011;5553;48.506;8.870;2022-12-07T04:13:14;12.70;;;5.87;;
11000;SDS011;5553;48.506;8.870;2022-12-07T04:15:43;9.90;;;5.67;;
11000;SDS011;5553;48.506;8.870;2022-12-07T04:18:11;12.00;;;5.67;;
11000;SDS011;5553;48.506;8.870;2022-12-07T04:20:42;11.07;;;5.77;;
11000;SDS011;5553;48.506;8.870;2022-12-07T04:23:10;10.13;;;5.57;;
11000;SDS011;5553;48.506;8.870;2022-12-07T04:25:39;12.43;;;6.83;;
11000;SDS011;5553;48.506;8.870;2022-12-07T04:28:08;11.20;;;5.63;;
11000;SDS011;5553;48.506;8.870;2022-12-07T04:30:36;10.40;;;5.70;;
11000;SDS011;5553;48.506;8.870;2022-12-07T04:33:05;13.20;;;6.17;;
11000;SDS011;5553;48.506;8.870;2022-12-07T04:35:33;10.30;;;6.17;;
11000;SDS011;5553;48.506;8.870;2022-12-07T04:38:04;9.80;;;5.47;;
11000;SDS011;5553;48.506;8.870;2022-12-07T04:40:33;11.10;;;6.10;;
11000;SDS011;5553;48.506;8.870;2022-12-07T04:43:01;9.37;;;5.60;;
11000;SDS011;5553;48.506;8.870;2022-12-07T04:45:29;10.40;;;5.80;;
11000;SDS011;5553;48.506;8.870;2022-12-07T04:47:58;12.57;;;6.27;;
11000;SDS011;5553;48.506;8.870;2022-12-07T04:50:26;9.53;;;5.03;;
11000;SDS011;5553;48.506;8.870;2022-12-07T04:52:54;12.80;;;6.10;;
11000;SDS011;5553;48.506;8.870;2022-12-07T04:55:25;9.17;;;5.67;;
11000;SDS011;5553;48.506;8.870;2022-12-07T04:57:54;8.50;;;5.60;;
11000;SDS011;5553;48.506;8.870;2022-12-07T05:00:22;9.10;;;5.33;;
11000;SDS011;5553;48.506;8.870;2022-12-07T05:02:50;11.10;;;6.10;;
11000;SDS011;5553;48.506;8.870;2022-12-07T05:05:19;11.17;;;6.17;;
11000;SDS011;5553;48.506;8.870;2022-12-07T05:07:47;10.93;;;6.13;;
11000;SDS011;5553;48.506;8.870;2022-12-07T05:10:15;8.43;;;5.10;;
11000;SDS011;5553;48.506;8.870;2022-12-07T05:12:47;10.73;;;5.20;;
11000;SDS011;5553;48.506;8.870;2022-12-07T05:15:15;10.20;;;5.30;;
11000;SDS011;5553;48.506;8.870;2022-12-07T05:17:44;9.87;;;6.20;;
11000;SDS011;5553;48.506;8.870;2022-12-07T05:20:12;8.43;;;5.10;;
11000;SDS011;5553;48.506;8.870;2022-12-07T05:22:41;12.37;;;6.83;;
11000;SDS011;5553;48.506;8.870;2022-12-07T05:25:09;12.70;;;6.80;;
11000;SDS011;5553;48.506;8.870;2022-12-07T05:27:37;10.77;;;5.93;;
11000;SDS011;5553;48.506;8.870;2022-12-07T05:30:09;10.20;;;5.80;;
11000;SDS011;5553;48.506;8.870;2022-12-07T05:32:38;10.33;;;5.93;;
11000;SDS011;5553;48.506;8.870;2022-12-07T05:35:07;13.10;;;7.40;;
11000;SDS011;5553;48.506;8.870;2022-12-07T05:37:36;11.97;;;6.23;;
11000;SDS011;5553;48.506;8.870;2022-12-07T05:40:05;11.37;;;6.87;;
11000;SDS011;5553;48.506;8.870;2022-12-07T05:42:34;10.73;;;6.03;;
11000;SDS011;5553;48.506;8.870;2022-12-07T05:44:59;9.80;;;5.80;;
11000;SDS011;5553;48.506;8.870;2022-12-07T05:47:30;11.73;;;6.60;;
11000;SDS011;5553;48.506;8.870;2022-12-07T05:49:59;7.80;;;5.40;;
11000;SDS011;5553;48.506;8.870;2022-12-07T05:52:27;13.47;;;7.80;;
11000;SDS011;5553;48.506;8.870;2022-12-07T05:54:56;11.33;;;6.73;;
11000;SDS011;5553;48.506;8.870;2022-12-07T05:57:24;10.13;;;6.30;;
11000;SDS011;5553;48.506;8.870;2022-12-07T05:59:52;10.30;;;6.00;;
11000;SDS011;5553;48.506;8.870;2022-12-07T06:02:18;12.63;;;6.60;;
11000;SDS011;5553;48.506;8.870;2022-12-07T06:04:49;11.87;;;6.43;;
11000;SDS011;5553;48.506;8.870;2022-12-07T06:07:17;9.50;;;5.93;;
11000;SDS011;5553;48.506;8.870;2022-12-07T06:09:46;10.83;;;6.80;;
11000;SDS011;5553;48.506;8.870;2022-12-07T06:12:14;14.77;;;7.50;;
11000;SDS011;5553;48.506;8.870;2022-12-07T06:14:55;24.93;;;13.87;;
11000;SDS011;5553;48.506;8.870;2022-12-07T06:17:24;30.00;;;15.97;;
11000;SDS011;5553;48.506;8.870;2022-12-07T06:19:55;13.50;;;7.97;;
11000;SDS011;5553;48.506;8.870;2022-12-07T06:22:23;14.47;;;7.30;;
11000;SDS011;5553;48.506;8.870;2022-12-07T06:24:51;13.23;;;6.17;;
11000;SDS011;5553;48.506;8.870;2022-12-07T06:27:20;11.80;;;6.40;;
11000;SDS011;5553;48.506;8.870;2022-12-07T06:29:48;12.00;;;6.77;;
11000;SDS011;5553;48.506;8.870;2022-12-07T06:32:16;10.77;;;7.00;;
11000;SDS011;5553;48.506;8.870;2022-12-07T06:34:45;11.43;;;6.47;;
11000;SDS011;5553;48.506;8.870;2022-12-07T06:37:16;14.93;;;6.87;;
11000;SDS011;5553;48.506;8.870;2022-12-07T06:39:45;13.20;;;7.07;;
11000;SDS011;5553;48.506;8.870;2022-12-07T06:42:13;11.40;;;6.90;;
11000;SDS011;5553;48.506;8.870;2022-12-07T06:44:41;11.43;;;6.13;;
11000;SDS011;5553;48.506;8.870;2022-12-07T06:47:10;11.43;;;6.50;;
11000;SDS011;5553;48.506;8.870;2022-12-07T06:49:39;15.50;;;7.03;;
11000;SDS011;5553;48.506;8.870;2022-12-07T06:52:07;13.90;;;6.93;;
11000;SDS011;5553;48.506;8.870;2022-12-07T06:54:38;14.73;;;7.90;;
11000;SDS011;5553;48.506;8.870;2022-12-07T06:57:06;69.50;;;26.30;;
11000;SDS011;5553;48.506;8.870;2022-12-07T06:59:35;38.87;;;18.67;;
11000;SDS011;5553;48.506;8.870;2022-12-07T07:02:03;35.10;;;15.00;;
11000;SDS011;5553;48.506;8.870;2022-12-07T07:04:32;24.90;;;12.67;;
11000;SDS011;5553;48.506;8.870;2022-12-07T07:07:00;15.77;;;8.70;;
11000;SDS011;5553;48.506;8.870;2022-12-07T07:09:28;13.30;;;6.97;;
11000;SDS011;5553;48.506;8.870;2022-12-07T07:11:59;10.80;;;6.43;;
11000;SDS011;5553;48.506;8.870;2022-12-07T07:14:28;11.27;;;6.20;;
11000;SDS011;5553;48.506;8.870;2022-12-07T07:16:56;7.83;;;5.53;;
11000;SDS011;5553;48.506;8.870;2022-12-07T07:19:24;12.90;;;6.50;;
11000;SDS011;5553;48.506;8.870;2022-12-07T07:21:53;11.10;;;6.77;;
11000;SDS011;5553;48.506;8.870;2022-12-07T07:24:21;9.73;;;6.00;;
11000;SDS011;5553;48.506;8.870;2022-12-07T07:26:49;13.53;;;7.10;;
11000;SDS011;5553;48.506;8.870;2022-12-07T07:29:20;10.17;;;6.87;;
11000;SDS011;5553;48.506;8.870;2022-12-07T07:31:49;9.50;;;6.10;;
11000;SDS011;5553;48.506;8.870;2022-12-07T07:34:17;12.00;;;7.03;;
11000;SDS011;5553;48.506;8.870;2022-12-07T07:36:46;13.90;;;7.80;;
11000;SDS011;5553;48.506;8.870;2022-12-07T07:39:14;10.47;;;6.10;;
11000;SDS011;5553;48.506;8.870;2022-12-07T07:41:42;10.80;;;6.73;;
11000;SDS011;5553;48.506;8.870;2022-12-07T07:44:11;11.10;;;6.87;;
11000;SDS011;5553;48.506;8.870;2022-12-07T07:46:42;13.53;;;7.53;;
11000;SDS011;5553;48.506;8.870;2022-12-07T07:49:10;13.53;;;7.40;;
11000;SDS011;5553;48.506;8.870;2022-12-07T07:51:38;10.63;;;7.27;;
11000;SDS011;5553;48.506;8.870;2022-12-07T07:54:07;14.00;;;7.07;;
11000;SDS011;5553;48.506;8.870;2022-12-07T07:56:35;12.40;;;6.30;;
11000;SDS011;5553;48.506;8.870;2022-12-07T07:59:03;10.90;;;6.00;;
11000;SDS011;5553;48.506;8.870;2022-12-07T08:01:32;11.70;;;6.47;;
11000;SDS011;5553;48.506;8.870;2022-12-07T08:04:03;11.70;;;6.53;;
11000;SDS011;5553;48.506;8.870;2022-12-07T08:06:31;7.67;;;5.03;;
11000;SDS011;5553;48.506;8.870;2022-12-07T08:09:00;11.30;;;5.80;;
11000;SDS011;5553;48.506;8.870;2022-12-07T08:11:30;9.07;;;5.03;;
11000;SDS011;5553;48.506;8.870;2022-12-07T08:13:59;8.50;;;5.40;;
11000;SDS011;5553;48.506;8.870;2022-12-07T08:16:27;10.10;;;5.70;;
11000;SDS011;5553;48.506;8.870;2022-12-07T08:18:56;9.30;;;5.87;;
11000;SDS011;5553;48.506;8.870;2022-12-07T08:21:26;8.20;;;5.63;;
11000;SDS011;5553;48.506;8.870;2022-12-07T08:23:55;11.07;;;6.30;;
11000;SDS011;5553;48.506;8.870;2022-12-07T08:26:25;9.53;;;5.23;;
11000;SDS011;5553;48.506;8.870;2022-12-07T08:28:53;12.57;;;7.00;;
11000;SDS011;5553;48.506;8.870;2022-12-07T08:31:21;12.77;;;5.70;;
11000;SDS011;5553;48.506;8.870;2022-12-07T08:33:50;9.07;;;5.97;;
11000;SDS011;5553;48.506;8.870;2022-12-07T08:36:18;9.67;;;5.80;;
11000;SDS011;5553;48.506;8.870;2022-12-07T08:38:50;9.97;;;6.40;;
11000;SDS011;5553;48.506;8.870;2022-12-07T08:41:18;8.70;;;5.63;;
11000;SDS011;5553;48.506;8.870;2022-12-07T08:43:47;10.00;;;6.13;;
11000;SDS011;5553;48.506;8.870;2022-12-07T08:46:17;7.50;;;5.13;;
11000;SDS011;5553;48.506;8.870;2022-12-07T08:48:50;11.60;;;6.33;;
11000;SDS011;5553;48.506;8.870;2022-12-07T08:51:23;9.37;;;5.70;;
11000;SDS011;5553;48.506;8.870;2022-12-07T08:53:55;10.20;;;6.03;;
11000;SDS011;5553;48.506;8.870;2022-12-07T08:56:26;8.50;;;5.87;;
11000;SDS011;5553;48.506;8.870;2022-12-07T08:58:55;10.67;;;5.90;;
11000;SDS011;5553;48.506;8.870;2022-12-07T09:01:23;8.17;;;6.03;;
11000;SDS011;5553;48.506;8.870;2022-12-07T09:03:52;8.20;;;5.53;;
11000;SDS011;5553;48.506;8.870;2022-12-07T09:06:20;9.33;;;5.70;;
11000;SDS011;5553;48.506;8.870;2022-12-07T09:08:49;8.83;;;5.53;;
11000;SDS011;5553;48.506;8.870;2022-12-07T09:11:23;8.03;;;5.30;;
11000;SDS011;5553;48.506;8.870;2022-12-07T09:13:52;8.10;;;5.60;;
11000;SDS011;5553;48.506;8.870;2022-12-07T09:16:20;6.50;;;5.70;;
11000;SDS011;5553;48.506;8.870;2022-12-07T09:18:49;9.83;;;5.93;;
11000;SDS011;5553;48.506;8.870;2022-12-07T09:21:17;8.83;;;5.40;;
11000;SDS011;5553;48.506;8.870;2022-12-07T09:23:45;7.77;;;4.60;;
11000;SDS011;5553;48.506;8.870;2022-12-07T09:26:14;8.70;;;4.87;;
11000;SDS011;5553;48.506;8.870;2022-12-07T09:28:45;11.33;;;5.73;;
11000;SDS011;5553;48.506;8.870;2022-12-07T09:31:13;8.73;;;5.67;;
11000;SDS011;5553;48.506;8.870;2022-12-07T09:33:41;8.33;;;5.37;;
11000;SDS011;5553;48.506;8.870;2022-12-07T09:36:10;10.50;;;6.50;;
11000;SDS011;5553;48.506;8.870;2022-12-07T09:38:38;9.33;;;5.50;;
11000;SDS011;5553;48.506;8.870;2022-12-07T09:41:06;8.97;;;5.30;;
11000;SDS011;5553;48.506;8.870;2022-12-07T09:43:35;15.47;;;6.40;;
11000;SDS011;5553;48.506;8.870;2022-12-07T09:46:10;10.90;;;5.50;;
11000;SDS011;5553;48.506;8.870;2022-12-07T09:48:43;15.60;;;6.57;;
11000;SDS011;5553;48.506;8.870;2022-12-07T09:51:13;9.33;;;5.57;;
11000;SDS011;5553;48.506;8.870;2022-12-07T09:53:44;10.20;;;6.30;;
11000;SDS011;5553;48.506;8.870;2022-12-07T09:56:14;8.77;;;6.10;;
11000;SDS011;5553;48.506;8.870;2022-12-07T09:58:45;11.53;;;6.33;;
11000;SDS011;5553;48.506;8.870;2022-12-07T10:01:18;10.20;;;5.93;;
11000;SDS011;5553;48.506;8.870;2022-12-07T10:03:48;9.43;;;6.10;;
11000;SDS011;5553;48.506;8.870;2022-12-07T10:06:19;15.13;;;6.20;;
11000;SDS011;5553;48.506;8.870;2022-12-07T10:08:47;9.10;;;5.67;;
11000;SDS011;5553;48.506;8.870;2022-12-07T10:11:16;10.10;;;6.30;;
11000;SDS011;5553;48.506;8.870;2022-12-07T10:13:45;12.43;;;6.87;;
11000;SDS011;5553;48.506;8.870;2022-12-07T10:19:17;11.80;;;7.17;;
11000;SDS011;5553;48.506;8.870;2022-12-07T10:22:00;12.23;;;6.53;;
11000;SDS011;5553;48.506;8.870;2022-12-07T10:24:36;11.43;;;6.27;;
11000;SDS011;5553;48.506;8.870;2022-12-07T10:27:16;10.00;;;5.83;;
11000;SDS011;5553;48.506;8.870;2022-12-07T10:29:47;11.23;;;6.93;;
11000;SDS011;5553;48.506;8.870;2022-12-07T10:32:31;12.03;;;7.00;;
11000;SDS011;5553;48.506;8.870;2022-12-07T10:35:18;10.30;;;5.90;;
11000;SDS011;5553;48.506;8.870;2022-12-07T10:37:49;10.53;;;6.27;;
11000;SDS011;5553;48.506;8.870;2022-12-07T10:40:31;10.87;;;6.00;;
11000;SDS011;5553;48.506;8.870;2022-12-07T10:43:02;10.90;;;6.60;;
11000;SDS011;5553;48.506;8.870;2022-12-07T10:45:32;13.10;;;7.10;;
11000;SDS011;5553;48.506;8.870;2022-12-07T10:48:07;11.90;;;7.30;;
11000;SDS011;5553;48.506;8.870;2022-12-07T10:50:42;11.37;;;6.10;;
11000;SDS011;5553;48.506;8.870;2022-12-07T10:53:24;9.70;;;5.93;;
11000;SDS011;5553;48.506;8.870;2022-12-07T10:59:04;9.13;;;6.13;;
11000;SDS011;5553;48.506;8.870;2022-12-07T11:01:54;10.17;;;6.00;;
11000;SDS011;5553;48.506;8.870;2022-12-07T11:04:33;15.20;;;7.17;;
11000;SDS011;5553;48.506;8.870;2022-12-07T11:07:10;11.60;;;6.53;;
11000;SDS011;5553;48.506;8.870;2022-12-07T11:09:49;10.37;;;6.77;;
11000;SDS011;5553;48.506;8.870;2022-12-07T11:12:28;9.30;;;6.10;;
11000;SDS011;5553;48.506;8.870;2022-12-07T11:15:11;8.77;;;5.17;;
11000;SDS011;5553;48.506;8.870;2022-12-07T11:17:46;10.40;;;4.80;;
11000;SDS011;5553;48.506;8.870;2022-12-07T11:20:29;10.20;;;6.37;;
11000;SDS011;5553;48.506;8.870;2022-12-07T11:23:11;7.73;;;5.60;;
11000;SDS011;5553;48.506;8.870;2022-12-07T11:25:49;10.53;;;5.80;;
11000;SDS011;5553;48.506;8.870;2022-12-07T11:28:28;9.33;;;5.43;;
11000;SDS011;5553;48.506;8.870;2022-12-07T11:31:10;9.33;;;5.90;;
11000;SDS011;5553;48.506;8.870;2022-12-07T11:33:47;10.90;;;5.80;;
11000;SDS011;5553;48.506;8.870;2022-12-07T11:36:31;8.83;;;5.27;;
11000;SDS011;5553;48.506;8.870;2022-12-07T11:39:09;8.33;;;5.00;;
11000;SDS011;5553;48.506;8.870;2022-12-07T11:41:47;7.30;;;4.57;;
11000;SDS011;5553;48.506;8.870;2022-12-07T11:44:23;8.17;;;5.20;;
11000;SDS011;5553;48.506;8.870;2022-12-07T11:46:59;11.43;;;6.70;;
11000;SDS011;5553;48.506;8.870;2022-12-07T11:49:39;9.23;;;5.83;;
11000;SDS011;5553;48.506;8.870;2022-12-07T11:52:17;8.90;;;5.43;;
11000;SDS011;5553;48.506;8.870;2022-12-07T11:54:50;7.83;;;5.00;;
11000;SDS011;5553;48.506;8.870;2022-12-07T11:57:22;9.23;;;4.90;;
11000;SDS011;5553;48.506;8.870;2022-12-07T11:59:56;8.80;;;4.83;;
11000;SDS011;5553;48.506;8.870;2022-12-07T12:02:31;6.93;;;4.70;;
11000;SDS011;5553;48.506;8.870;2022-12-07T12:05:05;4.47;;;3.10;;
11000;SDS011;5553;48.506;8.870;2022-12-07T12:07:44;4.10;;;3.20;;
11000;SDS011;5553;48.506;8.870;2022-12-07T12:10:15;4.03;;;2.43;;
11000;SDS011;5553;48.506;8.870;2022-12-07T12:12:53;5.83;;;3.90;;
11000;SDS011;5553;48.506;8.870;2022-12-07T12:15:45;4.23;;;2.73;;
11000;SDS011;5553;48.506;8.870;2022-12-07T12:18:30;5.30;;;3.13;;
11000;SDS011;5553;48.506;8.870;2022-12-07T12:21:08;4.00;;;2.83;;
11000;SDS011;5553;48.506;8.870;2022-12-07T12:23:43;4.30;;;2.90;;
11000;SDS011;5553;48.506;8.870;2022-12-07T12:26:16;4.33;;;2.73;;
11000;SDS011;5553;48.506;8.870;2022-12-07T12:28:51;4.80;;;3.20;;
11000;SDS011;5553;48.506;8.870;2022-12-07T12:31:34;5.63;;;3.10;;
11000;SDS011;5553;48.506;8.870;2022-12-07T12:34:10;3.27;;;2.10;;
11000;SDS011;5553;48.506;8.870;2022-12-07T12:37:00;4.63;;;2.43;;
11000;SDS011;5553;48.506;8.870;2022-12-07T12:39:31;5.23;;;2.60;;
11000;SDS011;5553;48.506;8.870;2022-12-07T12:42:00;2.60;;;2.00;;
11000;SDS011;5553;48.506;8.870;2022-12-07T12:44:41;4.30;;;2.43;;
11000;SDS011;5553;48.506;8.870;2022-12-07T12:50:29;2.93;;;2.00;;
11000;SDS011;5553;48.506;8.870;2022-12-07T12:53:14;3.70;;;1.90;;
11000;SDS011;5553;48.506;8.870;2022-12-07T12:58:51;3.33;;;1.50;;
11000;SDS011;5553;48.506;8.870;2022-12-07T13:02:15;1.67;;;1.40;;
11000;SDS011;5553;48.506;8.870;2022-12-07T13:04:49;1.40;;;1.30;;
11000;SDS011;5553;48.506;8.870;2022-12-07T13:13:08;1.77;;;1.47;;
11000;SDS011;5553;48.506;8.870;2022-12-07T13:25:05;1.87;;;1.60;;
11000;SDS011;5553;48.506;8.870;2022-12-07T13:27:37;2.00;;;1.50;;
11000;SDS011;5553;48.506;8.870;2022-12-07T13:30:14;1.60;;;1.27;;
11000;SDS011;5553;48.506;8.870;2022-12-07T13:32:50;2.20;;;1.20;;
11000;SDS011;5553;48.506;8.870;2022-12-07T13:35:30;1.40;;;1.30;;
11000;SDS011;5553;48.506;8.870;2022-12-07T13:38:02;2.13;;;1.40;;
11000;SDS011;5553;48.506;8.870;2022-12-07T13:40:33;2.20;;;1.37;;
11000;SDS011;5553;48.506;8.870;2022-12-07T13:43:03;2.17;;;1.10;;
11000;SDS011;5553;48.506;8.870;2022-12-07T13:45:43;1.50;;;1.40;;
11000;SDS011;5553;48.506;8.870;2022-12-07T13:48:20;1.93;;;1.17;;
11000;SDS011;5553;48.506;8.870;2022-12-07T13:50:55;1.30;;;1.20;;
11000;SDS011;5553;48.506;8.870;2022-12-07T13:53:26;1.60;;;1.27;;
11000;SDS011;5553;48.506;8.870;2022-12-07T13:55:56;2.00;;;1.10;;
11000;SDS011;5553;48.506;8.870;2022-12-07T13:58:25;1.37;;;1.10;;
11000;SDS011;5553;48.506;8.870;2022-12-07T14:01:00;2.53;;;1.93;;
11000;SDS011;5553;48.506;8.870;2022-12-07T14:03:29;1.93;;;1.50;;
11000;SDS011;5553;48.506;8.870;2022-12-07T14:06:03;3.50;;;1.87;;
11000;SDS011;5553;48.506;8.870;2022-12-07T14:08:34;2.10;;;1.63;;
11000;SDS011;5553;48.506;8.870;2022-12-07T14:11:02;2.30;;;1.63;;
11000;SDS011;5553;48.506;8.870;2022-12-07T14:13:32;5.33;;;3.30;;
11000;SDS011;5553;48.506;8.870;2022-12-07T14:16:19;16.67;;;8.73;;
11000;SDS011;5553;48.506;8.870;2022-12-07T14:18:53;13.63;;;7.13;;
11000;SDS011;5553;48.506;8.870;2022-12-07T14:21:22;10.67;;;7.37;;
11000;SDS011;5553;48.506;8.870;2022-12-07T14:24:04;11.80;;;6.63;;
11000;SDS011;5553;48.506;8.870;2022-12-07T14:26:37;5.80;;;4.07;;
11000;SDS011;5553;48.506;8.870;2022-12-07T14:29:19;6.43;;;4.47;;
11000;SDS011;5553;48.506;8.870;2022-12-07T14:32:04;2.97;;;2.23;;
11000;SDS011;5553;48.506;8.870;2022-12-07T14:34:55;4.70;;;3.30;;
11000;SDS011;5553;48.506;8.870;2022-12-07T14:37:24;4.93;;;3.20;;
11000;SDS011;5553;48.506;8.870;2022-12-07T14:39:53;3.87;;;2.97;;
11000;SDS011;5553;48.506;8.870;2022-12-07T14:42:23;7.13;;;3.40;;
11000;SDS011;5553;48.506;8.870;2022-12-07T14:44:54;3.77;;;3.30;;
11000;SDS011;5553;48.506;8.870;2022-12-07T14:47:25;4.03;;;3.00;;
11000;SDS011;5553;48.506;8.870;2022-12-07T14:49:54;5.00;;;3.57;;
11000;SDS011;5553;48.506;8.870;2022-12-07T14:52:24;7.93;;;4.00;;
11000;SDS011;5553;48.506;8.870;2022-12-07T14:54:55;5.57;;;3.53;;
11000;SDS011;5553;48.506;8.870;2022-12-07T14:57:24;4.90;;;3.50;;
11000;SDS011;5553;48.506;8.870;2022-12-07T14:59:52;7.90;;;4.67;;
11000;SDS011;5553;48.506;8.870;2022-12-07T15:02:20;9.47;;;6.47;;
11000;SDS011;5553;48.506;8.870;2022-12-07T15:04:51;6.40;;;5.00;;
11000;SDS011;5553;48.506;8.870;2022-12-07T15:07:25;7.30;;;4.10;;
11000;SDS011;5553;48.506;8.870;2022-12-07T15:09:53;5.03;;;4.27;;
11000;SDS011;5553;48.506;8.870;2022-12-07T15:12:24;4.53;;;3.30;;
11000;SDS011;5553;48.506;8.870;2022-12-07T15:14:52;4.93;;;3.33;;
11000;SDS011;5553;48.506;8.870;2022-12-07T15:17:20;5.07;;;3.17;;
11000;SDS011;5553;48.506;8.870;2022-12-07T15:19:51;5.10;;;3.20;;
11000;SDS011;5553;48.506;8.870;2022-12-07T15:22:20;5.80;;;3.20;;
11000;SDS011;5553;48.506;8.870;2022-12-07T15:24:48;5.87;;;3.30;;
11000;SDS011;5553;48.506;8.870;2022-12-07T15:27:16;3.77;;;2.90;;
11000;SDS011;5553;48.506;8.870;2022-12-07T15:29:45;4.97;;;3.47;;
11000;SDS011;5553;48.506;8.870;2022-12-07T15:32:13;4.00;;;2.73;;
11000;SDS011;5553;48.506;8.870;2022-12-07T15:34:41;12.20;;;3.50;;
11000;SDS011;5553;48.506;8.870;2022-12-07T15:37:12;5.60;;;3.57;;
11000;SDS011;5553;48.506;8.870;2022-12-07T15:39:41;6.07;;;4.23;;
11000;SDS011;5553;48.506;8.870;2022-12-07T15:42:09;5.70;;;4.00;;
11000;SDS011;5553;48.506;8.870;2022-12-07T15:44:37;6.10;;;3.80;;
11000;SDS011;5553;48.506;8.870;2022-12-07T15:47:18;7.77;;;3.37;;
11000;SDS011;5553;48.506;8.870;2022-12-07T15:49:47;3.80;;;2.43;;
11000;SDS011;5553;48.506;8.870;2022-12-07T15:52:18;5.80;;;3.80;;
11000;SDS011;5553;48.506;8.870;2022-12-07T15:54:46;4.73;;;3.70;;